createdAt,value
2023-03-29T00:02:02.407Z,7.80
2023-03-29T00:04:29.361Z,8.00
2023-03-29T00:06:56.720Z,7.70
2023-03-29T00:09:23.377Z,7.70
2023-03-29T00:11:50.015Z,7.70
2023-03-29T00:14:16.701Z,7.60
2023-03-29T00:16:44.855Z,7.80
2023-03-29T00:19:11.638Z,7.70
2023-03-29T00:21:38.235Z,7.70
2023-03-29T00:24:05.354Z,7.80
2023-03-29T00:26:32.005Z,7.80
2023-03-29T00:28:58.570Z,7.80
2023-03-29T00:31:26.067Z,7.70
2023-03-29T00:33:52.737Z,7.80
2023-03-29T00:36:19.711Z,7.80
2023-03-29T00:38:46.398Z,7.90
2023-03-29T00:41:13.741Z,7.70
2023-03-29T00:43:56.141Z,7.70
2023-03-29T00:46:24.228Z,7.70
2023-03-29T00:48:54.948Z,7.80
2023-03-29T00:51:24.590Z,7.80
2023-03-29T00:53:55.221Z,7.70
2023-03-29T00:56:29.848Z,7.80
2023-03-29T00:59:19.270Z,7.80
2023-03-29T01:01:54.645Z,7.90
2023-03-29T01:04:57.831Z,7.60
2023-03-29T01:07:43.002Z,7.80
2023-03-29T01:10:14.451Z,7.70
2023-03-29T01:12:46.507Z,7.70
2023-03-29T01:15:17.356Z,7.80
2023-03-29T01:17:50.006Z,7.80
2023-03-29T01:20:23.251Z,7.80
2023-03-29T01:23:14.007Z,7.80
2023-03-29T01:26:04.747Z,7.80
2023-03-29T01:28:36.873Z,7.90
2023-03-29T01:31:12.549Z,8.00
2023-03-29T01:33:44.091Z,7.70
2023-03-29T01:36:20.714Z,7.80
2023-03-29T01:39:03.289Z,7.70
2023-03-29T01:41:39.601Z,7.60
2023-03-29T01:44:13.284Z,7.70
2023-03-29T01:46:46.726Z,7.80
2023-03-29T01:49:29.033Z,7.70
2023-03-29T01:52:06.354Z,7.80
2023-03-29T01:54:41.236Z,7.60
2023-03-29T01:57:10.314Z,7.80
2023-03-29T01:59:41.211Z,7.80
2023-03-29T02:02:12.300Z,7.70
2023-03-29T02:04:45.804Z,7.70
2023-03-29T02:07:12.966Z,7.70
2023-03-29T02:09:40.226Z,7.80
2023-03-29T02:12:08.206Z,7.60
2023-03-29T02:14:35.453Z,7.60
2023-03-29T02:17:24.831Z,7.60
2023-03-29T02:20:14.200Z,7.70
2023-03-29T02:23:21.344Z,7.80
2023-03-29T02:25:50.328Z,7.90
2023-03-29T02:28:17.242Z,7.70
2023-03-29T02:31:05.208Z,7.80
2023-03-29T02:33:42.047Z,7.80
2023-03-29T02:36:15.549Z,7.90
2023-03-29T02:38:42.177Z,7.90
2023-03-29T02:41:10.605Z,8.00
2023-03-29T02:43:39.260Z,8.00
2023-03-29T02:46:07.705Z,8.10
2023-03-29T02:48:36.858Z,8.20
2023-03-29T02:51:12.243Z,8.20
2023-03-29T02:53:44.658Z,8.20
2023-03-29T02:56:11.389Z,8.20
2023-03-29T02:58:38.557Z,8.20
2023-03-29T03:01:10.382Z,8.20
2023-03-29T03:03:37.174Z,8.10
2023-03-29T03:06:04.093Z,8.00
2023-03-29T03:08:32.068Z,8.00
2023-03-29T03:10:59.594Z,8.10
2023-03-29T03:13:26.425Z,8.20
2023-03-29T03:15:54.025Z,8.10
2023-03-29T03:18:20.732Z,8.20
2023-03-29T03:21:01.759Z,8.20
2023-03-29T03:23:29.388Z,8.20
2023-03-29T03:25:56.485Z,8.20
2023-03-29T03:28:24.159Z,8.10
2023-03-29T03:30:50.805Z,8.20
2023-03-29T03:33:18.714Z,8.00
2023-03-29T03:35:46.339Z,7.80
2023-03-29T03:38:13.097Z,7.90
2023-03-29T03:40:39.678Z,8.00
2023-03-29T03:43:06.803Z,8.10
2023-03-29T03:45:33.737Z,8.20
2023-03-29T03:48:00.574Z,8.20
2023-03-29T03:50:27.325Z,8.10
2023-03-29T03:52:53.997Z,8.10
2023-03-29T03:55:21.910Z,8.10
2023-03-29T03:57:48.523Z,7.90
2023-03-29T04:00:21.409Z,7.80
2023-03-29T04:02:48.956Z,8.00
2023-03-29T04:05:16.919Z,8.10
2023-03-29T04:07:43.553Z,8.10
2023-03-29T04:10:11.050Z,8.20
2023-03-29T04:12:38.083Z,8.30
2023-03-29T04:15:05.735Z,8.20
2023-03-29T04:17:32.613Z,7.90
2023-03-29T04:20:01.229Z,7.90
2023-03-29T04:22:27.904Z,7.90
2023-03-29T04:24:54.499Z,7.80
2023-03-29T04:27:21.477Z,8.00
2023-03-29T04:29:48.769Z,8.00
2023-03-29T04:32:15.377Z,7.90
2023-03-29T04:34:41.962Z,7.80
2023-03-29T04:37:10.430Z,7.70
2023-03-29T04:39:37.768Z,7.70
2023-03-29T04:42:05.147Z,7.80
2023-03-29T04:44:33.515Z,7.80
2023-03-29T04:47:00.887Z,7.80
2023-03-29T04:49:27.515Z,7.80
2023-03-29T04:51:54.402Z,7.80
2023-03-29T04:54:21.237Z,7.70
2023-03-29T04:56:47.925Z,7.70
2023-03-29T04:59:14.570Z,7.90
2023-03-29T05:01:41.426Z,7.90
2023-03-29T05:04:08.534Z,7.80
2023-03-29T05:06:36.797Z,7.90
2023-03-29T05:09:04.790Z,7.80
2023-03-29T05:11:31.665Z,7.90
2023-03-29T05:14:03.172Z,8.00
2023-03-29T05:16:30.189Z,8.10
2023-03-29T05:18:57.369Z,8.10
2023-03-29T05:21:26.081Z,8.10
2023-03-29T05:23:53.210Z,8.00
2023-03-29T05:26:20.130Z,7.90
2023-03-29T05:28:46.980Z,7.80
2023-03-29T05:31:16.192Z,7.90
2023-03-29T05:33:43.895Z,7.90
2023-03-29T05:36:15.936Z,8.00
2023-03-29T05:38:46.765Z,8.00
2023-03-29T05:41:15.790Z,8.00
2023-03-29T05:43:42.382Z,8.00
2023-03-29T05:46:09.886Z,8.10
2023-03-29T05:48:36.493Z,8.20
2023-03-29T05:51:03.402Z,8.00
2023-03-29T05:53:30.359Z,8.10
2023-03-29T05:55:57.050Z,8.20
2023-03-29T05:58:26.314Z,8.30
2023-03-29T06:00:52.940Z,8.30
2023-03-29T06:03:23.744Z,8.30
2023-03-29T06:06:00.386Z,8.30
2023-03-29T06:08:28.407Z,8.20
2023-03-29T06:11:04.843Z,8.20
2023-03-29T06:13:33.447Z,8.30
2023-03-29T06:16:01.023Z,8.40
2023-03-29T06:18:27.993Z,8.40
2023-03-29T06:20:54.648Z,8.30
2023-03-29T06:23:22.999Z,8.40
2023-03-29T06:25:51.414Z,8.50
2023-03-29T06:28:19.124Z,8.50
2023-03-29T06:30:46.065Z,8.60
2023-03-29T06:33:14.158Z,8.50
2023-03-29T06:35:46.079Z,8.50
2023-03-29T06:38:13.566Z,8.50
2023-03-29T06:40:40.170Z,8.50
2023-03-29T06:43:07.321Z,8.60
2023-03-29T06:45:36.874Z,8.60
2023-03-29T06:48:04.856Z,8.60
2023-03-29T06:50:31.947Z,8.70
2023-03-29T06:52:58.715Z,8.70
2023-03-29T06:55:27.018Z,8.60
2023-03-29T06:57:54.169Z,8.80
2023-03-29T07:00:27.917Z,8.70
2023-03-29T07:02:56.481Z,8.70
2023-03-29T07:05:23.917Z,8.70
2023-03-29T07:07:55.038Z,8.80
2023-03-29T07:10:23.640Z,8.90
2023-03-29T07:12:50.270Z,8.80
2023-03-29T07:15:17.149Z,8.90
2023-03-29T07:17:43.985Z,9.00
2023-03-29T07:20:14.066Z,9.10
2023-03-29T07:22:41.804Z,9.00
2023-03-29T07:25:09.407Z,9.20
2023-03-29T07:27:41.643Z,9.20
2023-03-29T07:30:11.203Z,9.20
2023-03-29T07:32:39.552Z,9.20
2023-03-29T07:35:08.598Z,9.20
2023-03-29T07:37:39.615Z,9.20
2023-03-29T07:40:15.974Z,9.30
2023-03-29T07:42:44.581Z,9.40
2023-03-29T07:45:13.609Z,9.50
2023-03-29T07:47:41.456Z,9.60
2023-03-29T07:50:09.500Z,9.60
2023-03-29T07:52:38.185Z,9.70
2023-03-29T07:55:06.476Z,9.70
2023-03-29T07:57:33.057Z,9.70
2023-03-29T07:59:59.984Z,9.80
2023-03-29T08:02:27.192Z,9.90
2023-03-29T08:04:54.639Z,10.00
2023-03-29T08:07:21.273Z,10.00
2023-03-29T08:09:48.484Z,10.10
2023-03-29T08:12:15.611Z,10.10
2023-03-29T08:14:42.218Z,10.10
2023-03-29T08:17:08.941Z,10.20
2023-03-29T08:19:35.729Z,10.20
2023-03-29T08:22:02.631Z,10.20
2023-03-29T08:24:29.228Z,10.20
2023-03-29T08:26:56.044Z,10.20
2023-03-29T08:29:22.765Z,10.20
2023-03-29T08:31:49.370Z,10.20
2023-03-29T08:34:16.115Z,10.20
2023-03-29T08:36:42.980Z,10.20
2023-03-29T08:39:09.877Z,10.20
2023-03-29T08:42:10.714Z,10.30
2023-03-29T08:45:05.355Z,10.40
2023-03-29T08:47:55.807Z,10.40
2023-03-29T08:50:41.083Z,10.50
2023-03-29T08:53:14.459Z,10.60
2023-03-29T08:55:44.170Z,10.70
2023-03-29T08:58:18.954Z,10.70
2023-03-29T09:00:55.108Z,10.60
2023-03-29T09:03:30.135Z,10.70
2023-03-29T09:06:02.566Z,10.80
2023-03-29T09:08:29.404Z,10.80
2023-03-29T09:11:28.223Z,10.80
2023-03-29T09:14:16.547Z,10.80
2023-03-29T09:16:49.219Z,10.90
2023-03-29T09:19:18.626Z,11.00
2023-03-29T09:22:09.367Z,11.10
2023-03-29T09:25:00.532Z,11.10
2023-03-29T09:28:05.037Z,11.20
2023-03-29T09:30:56.550Z,11.20
2023-03-29T09:33:37.155Z,11.30
2023-03-29T09:36:31.972Z,11.40
2023-03-29T09:38:59.526Z,11.50
2023-03-29T09:41:35.434Z,11.50
2023-03-29T09:44:10.903Z,11.50
2023-03-29T09:46:47.362Z,11.50
2023-03-29T09:49:43.424Z,11.60
2023-03-29T09:52:13.843Z,11.60
2023-03-29T09:54:41.081Z,11.70
2023-03-29T09:57:15.323Z,11.70
2023-03-29T09:59:42.800Z,11.80
2023-03-29T10:02:12.829Z,12.00
2023-03-29T10:04:41.997Z,12.10
2023-03-29T10:07:18.029Z,12.00
2023-03-29T10:09:46.469Z,12.10
2023-03-29T10:12:13.914Z,12.10
2023-03-29T10:14:51.436Z,12.20
2023-03-29T10:17:23.518Z,12.10
2023-03-29T10:19:57.741Z,12.10
2023-03-29T10:22:34.550Z,12.20
2023-03-29T10:25:02.026Z,12.30
2023-03-29T10:27:31.872Z,12.30
2023-03-29T10:30:00.624Z,12.40
2023-03-29T10:32:33.363Z,12.50
2023-03-29T10:35:07.170Z,12.60
2023-03-29T10:37:33.789Z,12.70
2023-03-29T10:40:00.525Z,12.80
2023-03-29T10:42:28.546Z,12.90
2023-03-29T10:44:58.243Z,12.90
2023-03-29T10:47:25.926Z,12.90
2023-03-29T10:49:57.249Z,12.90
2023-03-29T10:52:24.455Z,13.00
2023-03-29T10:54:53.689Z,13.00
2023-03-29T10:57:49.031Z,13.10
2023-03-29T11:00:33.871Z,13.20
2023-03-29T11:03:21.696Z,13.20
2023-03-29T11:06:05.194Z,13.30
2023-03-29T11:08:32.101Z,13.30
2023-03-29T11:11:24.210Z,13.20
2023-03-29T11:14:15.631Z,13.20
2023-03-29T11:17:14.312Z,13.20
2023-03-29T11:20:03.691Z,13.20
2023-03-29T11:22:44.415Z,13.20
2023-03-29T11:25:21.538Z,13.20
2023-03-29T11:28:14.560Z,13.20
2023-03-29T11:30:51.178Z,13.30
2023-03-29T11:33:56.470Z,13.40
2023-03-29T11:36:35.245Z,13.60
2023-03-29T11:39:24.700Z,13.60
2023-03-29T11:41:56.260Z,13.80
2023-03-29T11:44:32.172Z,13.90
2023-03-29T11:47:06.151Z,14.00
2023-03-29T11:49:37.264Z,13.90
2023-03-29T11:52:26.025Z,13.90
2023-03-29T11:55:03.634Z,13.80
2023-03-29T11:57:33.300Z,13.80
2023-03-29T12:00:12.253Z,13.90
2023-03-29T12:02:49.185Z,14.10
2023-03-29T12:05:22.391Z,14.00
2023-03-29T12:07:55.420Z,14.00
2023-03-29T12:10:34.534Z,14.10
2023-03-29T12:13:06.054Z,14.20
2023-03-29T12:15:42.507Z,14.30
2023-03-29T12:18:35.581Z,14.40
2023-03-29T12:21:06.679Z,14.30
2023-03-29T12:23:33.749Z,14.40
2023-03-29T12:26:18.916Z,14.60
2023-03-29T12:29:00.881Z,14.90
2023-03-29T12:31:49.276Z,15.10
2023-03-29T12:34:42.843Z,15.10
2023-03-29T12:37:21.802Z,15.10
2023-03-29T12:39:49.562Z,15.30
2023-03-29T12:42:19.453Z,15.20
2023-03-29T12:45:13.584Z,15.10
2023-03-29T12:47:45.420Z,14.90
2023-03-29T12:50:26.292Z,15.00
2023-03-29T12:52:53.095Z,15.00
2023-03-29T12:55:49.616Z,15.10
2023-03-29T12:58:41.413Z,15.20
2023-03-29T13:01:27.273Z,15.20
2023-03-29T13:04:00.150Z,15.10
2023-03-29T13:06:32.359Z,15.00
2023-03-29T13:09:21.835Z,15.00
2023-03-29T13:11:53.955Z,15.20
2023-03-29T13:14:23.863Z,15.40
2023-03-29T13:16:50.670Z,15.30
2023-03-29T13:19:23.544Z,15.10
2023-03-29T13:21:53.367Z,15.10
2023-03-29T13:24:30.227Z,15.10
2023-03-29T13:27:22.231Z,15.00
2023-03-29T13:30:20.741Z,15.20
2023-03-29T13:33:06.440Z,15.20
2023-03-29T13:35:56.271Z,15.20
2023-03-29T13:38:28.524Z,15.50
2023-03-29T13:41:07.126Z,15.50
2023-03-29T13:43:53.351Z,15.60
2023-03-29T13:46:40.947Z,15.60
2023-03-29T13:49:29.237Z,15.60
2023-03-29T13:52:26.220Z,15.50
2023-03-29T13:55:07.888Z,15.50
2023-03-29T13:57:42.111Z,15.50
2023-03-29T14:00:36.963Z,15.50
2023-03-29T14:03:12.360Z,15.50
2023-03-29T14:05:42.155Z,15.50
2023-03-29T14:08:26.125Z,15.50
2023-03-29T14:10:53.995Z,15.50
2023-03-29T14:13:24.033Z,15.50
2023-03-29T14:16:02.819Z,15.50
2023-03-29T14:18:36.643Z,15.50
2023-03-29T14:21:03.872Z,15.40
2023-03-29T14:23:33.618Z,15.50
2023-03-29T14:26:21.451Z,15.50
2023-03-29T14:28:56.370Z,15.50
2023-03-29T14:31:43.343Z,15.60
2023-03-29T14:34:15.774Z,15.70
2023-03-29T14:36:46.038Z,15.80
2023-03-29T14:39:19.069Z,15.80
2023-03-29T14:41:54.387Z,15.90
2023-03-29T14:44:23.704Z,15.90
2023-03-29T14:46:50.748Z,15.90
2023-03-29T14:49:19.440Z,15.70
2023-03-29T14:51:47.451Z,15.70
2023-03-29T14:54:23.843Z,15.60
2023-03-29T14:56:51.116Z,15.70
2023-03-29T14:59:27.257Z,15.70
2023-03-29T15:01:54.330Z,15.70
2023-03-29T15:04:21.664Z,15.70
2023-03-29T15:06:50.692Z,15.70
2023-03-29T15:09:20.866Z,15.70
2023-03-29T15:11:58.542Z,15.70
2023-03-29T15:14:27.883Z,15.70
2023-03-29T15:17:06.096Z,15.60
2023-03-29T15:19:33.642Z,15.60
2023-03-29T15:22:10.831Z,15.50
2023-03-29T15:24:43.016Z,15.50
2023-03-29T15:27:19.744Z,15.50
2023-03-29T15:29:47.319Z,15.40
2023-03-29T15:32:25.132Z,15.50
2023-03-29T15:34:59.767Z,15.50
2023-03-29T15:37:27.457Z,15.60
2023-03-29T15:39:54.645Z,15.60
2023-03-29T15:42:21.474Z,15.60
2023-03-29T15:44:48.191Z,15.60
2023-03-29T15:47:14.912Z,15.60
2023-03-29T15:49:41.749Z,15.60
2023-03-29T15:52:08.517Z,15.60
2023-03-29T15:54:37.005Z,15.60
2023-03-29T15:57:12.150Z,15.70
2023-03-29T15:59:38.934Z,15.70
2023-03-29T16:02:06.164Z,15.80
2023-03-29T16:04:32.840Z,15.80
2023-03-29T16:07:02.141Z,15.80
2023-03-29T16:09:29.387Z,15.80
2023-03-29T16:11:56.029Z,15.80
2023-03-29T16:14:30.304Z,15.70
2023-03-29T16:16:58.488Z,15.70
2023-03-29T16:19:26.357Z,15.70
2023-03-29T16:21:53.353Z,15.70
2023-03-29T16:24:25.476Z,15.70
2023-03-29T16:26:55.422Z,15.70
2023-03-29T16:29:23.079Z,15.70
2023-03-29T16:31:50.282Z,15.70
2023-03-29T16:34:18.684Z,15.70
2023-03-29T16:36:47.466Z,15.60
2023-03-29T16:39:14.189Z,15.60
2023-03-29T16:41:42.168Z,15.60
2023-03-29T16:44:15.170Z,15.60
2023-03-29T16:46:42.041Z,15.60
2023-03-29T16:49:13.893Z,15.60
2023-03-29T16:51:40.828Z,15.60
2023-03-29T16:54:07.511Z,15.60
2023-03-29T16:56:36.681Z,15.60
2023-03-29T16:59:03.610Z,15.60
2023-03-29T17:01:30.353Z,15.60
2023-03-29T17:03:57.236Z,15.60
2023-03-29T17:06:24.080Z,15.60
2023-03-29T17:08:50.709Z,15.60
2023-03-29T17:11:17.394Z,15.60
2023-03-29T17:13:44.503Z,15.50
2023-03-29T17:16:11.323Z,15.50
2023-03-29T17:18:38.089Z,15.50
2023-03-29T17:21:05.479Z,15.50
2023-03-29T17:23:32.181Z,15.50
2023-03-29T17:25:58.945Z,15.40
2023-03-29T17:28:25.775Z,15.40
2023-03-29T17:30:53.046Z,15.40
2023-03-29T17:33:22.616Z,15.40
2023-03-29T17:35:49.703Z,15.30
2023-03-29T17:38:16.398Z,15.30
2023-03-29T17:40:43.046Z,15.30
2023-03-29T17:43:09.642Z,15.30
2023-03-29T17:45:36.456Z,15.30
2023-03-29T17:48:05.695Z,15.30
2023-03-29T17:50:33.313Z,15.30
2023-03-29T17:52:59.934Z,15.30
2023-03-29T17:55:27.322Z,15.20
2023-03-29T17:57:54.009Z,15.20
2023-03-29T18:00:20.976Z,15.20
2023-03-29T18:02:47.681Z,15.20
2023-03-29T18:05:14.514Z,15.10
2023-03-29T18:07:41.123Z,15.10
2023-03-29T18:10:08.184Z,15.10
2023-03-29T18:12:35.303Z,15.10
2023-03-29T18:15:02.611Z,15.10
2023-03-29T18:17:29.409Z,15.10
2023-03-29T18:19:56.119Z,15.00
2023-03-29T18:22:23.965Z,15.10
2023-03-29T18:24:50.912Z,15.10
2023-03-29T18:27:17.896Z,15.00
2023-03-29T18:29:44.732Z,15.00
2023-03-29T18:32:11.769Z,15.00
2023-03-29T18:34:39.273Z,15.00
2023-03-29T18:37:06.113Z,15.00
2023-03-29T18:39:34.517Z,14.90
2023-03-29T18:42:01.511Z,15.00
2023-03-29T18:44:28.580Z,14.90
2023-03-29T18:46:55.260Z,14.90
2023-03-29T18:49:22.037Z,14.90
2023-03-29T18:51:49.874Z,14.80
2023-03-29T18:54:17.102Z,14.80
2023-03-29T18:56:43.802Z,14.80
2023-03-29T18:59:10.704Z,14.80
2023-03-29T19:01:37.496Z,14.80
2023-03-29T19:04:04.468Z,14.80
2023-03-29T19:06:31.694Z,14.80
2023-03-29T19:09:01.762Z,14.80
2023-03-29T19:11:31.553Z,14.80
2023-03-29T19:13:58.162Z,14.80
2023-03-29T19:16:25.662Z,14.70
2023-03-29T19:18:52.442Z,14.70
2023-03-29T19:21:19.155Z,14.70
2023-03-29T19:23:46.140Z,14.70
2023-03-29T19:26:13.255Z,14.70
2023-03-29T19:28:39.881Z,14.60
2023-03-29T19:31:06.997Z,14.60
2023-03-29T19:33:33.649Z,14.60
2023-03-29T19:36:00.493Z,14.60
2023-03-29T19:38:27.249Z,14.60
2023-03-29T19:40:53.934Z,14.60
2023-03-29T19:43:20.809Z,14.60
2023-03-29T19:45:49.595Z,14.60
2023-03-29T19:48:22.316Z,14.50
2023-03-29T19:50:49.492Z,14.50
2023-03-29T19:53:16.328Z,14.50
2023-03-29T19:55:44.995Z,14.50
2023-03-29T19:58:11.852Z,14.40
2023-03-29T20:00:38.848Z,14.40
2023-03-29T20:03:09.117Z,14.40
2023-03-29T20:05:37.992Z,14.40
2023-03-29T20:08:04.714Z,14.30
2023-03-29T20:10:31.748Z,14.30
2023-03-29T20:12:58.888Z,14.30
2023-03-29T20:15:25.883Z,14.30
2023-03-29T20:17:54.815Z,14.20
2023-03-29T20:20:24.477Z,14.20
2023-03-29T20:22:53.865Z,14.20
2023-03-29T20:25:21.201Z,14.20
2023-03-29T20:27:49.339Z,14.20
2023-03-29T20:30:16.349Z,14.10
2023-03-29T20:32:43.175Z,14.10
2023-03-29T20:35:11.472Z,14.10
2023-03-29T20:37:38.122Z,14.10
2023-03-29T20:40:05.913Z,14.10
2023-03-29T20:42:34.444Z,14.10
2023-03-29T20:45:01.397Z,14.10
2023-03-29T20:47:29.278Z,14.10
2023-03-29T20:49:56.656Z,14.10
2023-03-29T20:52:24.481Z,14.00
2023-03-29T20:54:52.065Z,13.90
2023-03-29T20:57:20.672Z,13.90
2023-03-29T20:59:48.925Z,13.80
2023-03-29T21:02:20.650Z,13.80
2023-03-29T21:04:54.161Z,13.70
2023-03-29T21:07:21.446Z,13.70
2023-03-29T21:09:49.696Z,13.70
2023-03-29T21:12:16.731Z,13.70
2023-03-29T21:14:43.516Z,13.60
2023-03-29T21:17:10.242Z,13.60
2023-03-29T21:19:38.942Z,13.60
2023-03-29T21:22:06.033Z,13.60
2023-03-29T21:24:34.039Z,13.60
2023-03-29T21:27:00.805Z,13.60
2023-03-29T21:29:27.886Z,13.50
2023-03-29T21:31:55.037Z,13.50
2023-03-29T21:34:21.860Z,13.50
2023-03-29T21:36:48.441Z,13.50
2023-03-29T21:39:15.164Z,13.50
2023-03-29T21:41:41.807Z,13.40
2023-03-29T21:44:08.463Z,13.40
2023-03-29T21:46:35.269Z,13.50
2023-03-29T21:49:02.131Z,13.40
2023-03-29T21:51:28.743Z,13.30
2023-03-29T21:53:55.533Z,13.40
2023-03-29T21:56:22.317Z,13.40
2023-03-29T21:58:49.274Z,13.40
2023-03-29T22:01:16.160Z,13.30
2023-03-29T22:03:42.977Z,13.30
2023-03-29T22:06:13.210Z,13.30
2023-03-29T22:08:39.994Z,13.30
2023-03-29T22:11:09.923Z,13.20
2023-03-29T22:13:37.151Z,13.20
2023-03-29T22:16:04.538Z,13.20
2023-03-29T22:18:43.453Z,13.20
2023-03-29T22:21:15.276Z,13.20
2023-03-29T22:23:44.091Z,13.10
2023-03-29T22:26:13.159Z,13.10
2023-03-29T22:28:41.813Z,13.10
2023-03-29T22:31:10.974Z,13.00
2023-03-29T22:33:38.823Z,13.10
2023-03-29T22:36:21.681Z,13.10
2023-03-29T22:38:49.314Z,13.10
2023-03-29T22:41:17.417Z,13.20
2023-03-29T22:43:44.558Z,13.30
2023-03-29T22:46:13.244Z,13.30
2023-03-29T22:48:40.678Z,13.40
2023-03-29T22:51:07.380Z,13.40
2023-03-29T22:53:34.330Z,13.50
2023-03-29T22:56:01.247Z,13.50
2023-03-29T22:58:29.293Z,13.60
2023-03-29T23:00:57.268Z,13.60
2023-03-29T23:03:24.049Z,13.60
2023-03-29T23:05:55.618Z,13.60
2023-03-29T23:08:23.457Z,13.70
2023-03-29T23:10:50.247Z,13.70
2023-03-29T23:13:21.911Z,13.70
2023-03-29T23:15:49.913Z,13.70
2023-03-29T23:18:20.865Z,13.70
2023-03-29T23:20:49.085Z,13.70
2023-03-29T23:23:17.284Z,13.70
2023-03-29T23:25:48.174Z,13.70
2023-03-29T23:28:16.864Z,13.70
2023-03-29T23:30:43.664Z,13.70
2023-03-29T23:33:10.388Z,13.70
2023-03-29T23:35:37.792Z,13.80
2023-03-29T23:38:05.624Z,13.80
2023-03-29T23:40:33.101Z,13.80
2023-03-29T23:42:59.800Z,13.80
2023-03-29T23:45:27.792Z,13.70
2023-03-29T23:47:54.759Z,13.80
2023-03-29T23:50:23.772Z,13.80
2023-03-29T23:52:51.429Z,13.70
2023-03-29T23:55:18.737Z,13.70
2023-03-29T23:57:45.400Z,13.80
